Time;durP1;ratioP1;P1;durP2;ratioP2;P2;SDS_P1;SDS_P2;PMS_P1;PMS_P2;Temp;Humidity;BMP_temperature;BMP_pressure;BME280_temperature;BME280_humidity;BME280_pressure;Samples;Min_cycle;Max_cycle;Signal;HPM_P1;HPM_P2
2022/01/10 00:02:23;;;;;;;0.63;0.60;;;3.20;99.90;;;;;;4995384;28;20185;-69
2022/01/10 00:04:50;;;;;;;0.60;0.50;;;3.20;99.90;;;;;;4995021;28;20188;-69
2022/01/10 00:07:16;;;;;;;0.60;0.50;;;3.30;99.90;;;;;;4995219;28;20424;-69
2022/01/10 00:09:42;;;;;;;0.60;0.50;;;3.30;99.90;;;;;;4994537;28;20487;-69
2022/01/10 00:12:08;;;;;;;0.80;0.80;;;3.30;99.90;;;;;;4995028;28;20180;-69
2022/01/10 00:14:33;;;;;;;0.60;0.57;;;3.20;99.90;;;;;;4995924;28;20467;-69
2022/01/10 00:16:59;;;;;;;0.60;0.50;;;3.20;99.90;;;;;;4995605;28;20447;-69
2022/01/10 00:19:25;;;;;;;0.60;0.50;;;3.10;99.90;;;;;;4994514;28;20181;-69
2022/01/10 00:21:50;;;;;;;0.60;0.53;;;3.10;99.90;;;;;;4995403;28;20180;-69
2022/01/10 00:24:16;;;;;;;0.60;0.57;;;3.10;99.90;;;;;;4978926;28;20208;-69
2022/01/10 00:26:41;;;;;;;0.90;0.90;;;3.00;99.90;;;;;;4978302;28;20193;-69
2022/01/10 00:29:07;;;;;;;1.27;0.80;;;3.00;99.90;;;;;;4995983;28;20196;-69
2022/01/10 00:31:33;;;;;;;0.60;0.53;;;3.00;99.90;;;;;;4995857;28;20219;-69
2022/01/10 00:33:58;;;;;;;0.67;0.60;;;3.00;99.90;;;;;;4996071;28;20211;-69
2022/01/10 00:36:25;;;;;;;1.30;0.90;;;2.90;99.90;;;;;;4996217;28;20193;-69
2022/01/10 00:38:51;;;;;;;0.60;0.60;;;3.00;99.90;;;;;;4978361;28;20176;-69
2022/01/10 00:41:16;;;;;;;0.60;0.57;;;2.90;99.90;;;;;;4996121;28;20908;-69
2022/01/10 00:43:46;;;;;;;0.60;0.50;;;2.90;99.90;;;;;;4996113;28;20284;-69
2022/01/10 00:46:12;;;;;;;1.23;1.13;;;2.80;99.90;;;;;;4996019;28;20211;-69
2022/01/10 00:48:38;;;;;;;0.60;0.60;;;2.80;99.90;;;;;;4995842;28;20458;-69
2022/01/10 00:51:04;;;;;;;0.60;0.60;;;2.70;99.90;;;;;;4996486;28;20527;-69
2022/01/10 00:53:29;;;;;;;1.20;1.10;;;2.70;99.90;;;;;;4996178;28;20714;-69
2022/01/10 00:55:55;;;;;;;0.60;0.53;;;2.70;99.90;;;;;;4977881;28;20197;-68
2022/01/10 00:58:21;;;;;;;0.60;0.60;;;2.70;99.90;;;;;;4993897;28;20189;-69
2022/01/10 01:00:46;;;;;;;0.60;0.60;;;2.70;99.90;;;;;;4993993;28;20505;-68
2022/01/10 01:03:12;;;;;;;0.67;0.63;;;2.70;99.90;;;;;;4994237;28;20685;-69
2022/01/10 01:05:41;;;;;;;0.60;0.60;;;2.70;99.90;;;;;;4994037;28;20276;-69
2022/01/10 01:08:08;;;;;;;0.80;0.70;;;2.70;99.90;;;;;;4993919;28;20176;-68
2022/01/10 01:13:22;;;;;;;0.60;0.60;;;2.60;99.90;;;;;;4993921;28;20439;-69
2022/01/10 01:16:11;;;;;;;0.90;0.90;;;2.50;99.90;;;;;;4993654;28;20467;-69
2022/01/10 01:26:31;;;;;;;0.60;0.50;;;2.50;99.90;;;;;;4993208;28;20431;-69
2022/01/10 01:28:57;;;;;;;0.60;0.50;;;2.50;99.90;;;;;;4993363;28;20967;-69
2022/01/10 01:31:22;;;;;;;0.60;0.60;;;2.60;99.90;;;;;;4993443;28;20424;-68
2022/01/10 01:33:48;;;;;;;0.60;0.50;;;2.70;99.90;;;;;;4993138;28;20582;-69
2022/01/10 01:36:17;;;;;;;1.03;0.93;;;2.70;99.90;;;;;;4993385;28;20255;-69
2022/01/10 01:38:42;;;;;;;0.77;0.77;;;2.80;99.90;;;;;;4992684;28;20782;-69
2022/01/10 01:41:50;;;;;;;0.60;0.60;;;2.90;99.90;;;;;;4993111;28;20431;-69
2022/01/10 01:43:58;;;;;;;0.70;0.70;;;2.90;99.90;;;;;;4985250;28;20239;-69
2022/01/10 01:46:25;;;;;;;0.60;0.60;;;2.90;99.90;;;;;;4992997;28;20543;-68
2022/01/10 01:48:52;;;;;;;0.60;0.60;;;2.90;99.90;;;;;;4992984;28;20917;-69
2022/01/10 01:51:18;;;;;;;0.70;0.60;;;2.90;99.90;;;;;;4992924;28;20434;-69
2022/01/10 01:53:45;;;;;;;0.60;0.60;;;2.90;99.90;;;;;;4992552;28;20467;-68
2022/01/10 01:56:11;;;;;;;0.60;0.53;;;2.90;99.90;;;;;;4992863;28;21001;-68
2022/01/10 01:58:41;;;;;;;1.00;0.83;;;3.00;99.90;;;;;;4991880;28;20996;-69
2022/01/10 02:01:08;;;;;;;0.60;0.50;;;2.90;99.90;;;;;;4992882;28;20471;-69
2022/01/10 02:03:37;;;;;;;0.60;0.50;;;2.90;99.90;;;;;;4975377;28;20831;-68
2022/01/10 02:06:03;;;;;;;0.80;0.80;;;2.90;99.90;;;;;;4992884;28;21008;-68
2022/01/10 02:08:29;;;;;;;0.60;0.50;;;2.90;99.90;;;;;;4992332;28;20551;-68
2022/01/10 02:10:54;;;;;;;0.90;0.70;;;2.80;99.90;;;;;;4975614;28;20451;-69
2022/01/10 02:13:20;;;;;;;0.60;0.50;;;2.70;99.90;;;;;;4992782;28;20454;-69
2022/01/10 02:15:56;;;;;;;0.60;0.50;;;2.60;99.90;;;;;;4992756;28;20789;-68
2022/01/10 02:18:22;;;;;;;0.70;0.70;;;2.60;99.90;;;;;;4992313;28;20172;-69
2022/01/10 02:20:47;;;;;;;0.70;0.70;;;2.60;99.90;;;;;;4992808;28;20653;-69
2022/01/10 02:23:14;;;;;;;1.97;1.87;;;2.60;99.90;;;;;;4975259;28;20428;-70
2022/01/10 02:25:41;;;;;;;0.70;0.70;;;2.60;99.90;;;;;;4997778;28;20199;-70
2022/01/10 02:28:07;;;;;;;1.10;1.10;;;2.60;99.90;;;;;;4996961;28;20428;-70
2022/01/10 02:30:33;;;;;;;0.60;0.50;;;2.60;99.90;;;;;;4992349;28;20849;-70
2022/01/10 02:33:01;;;;;;;0.60;0.60;;;2.60;99.90;;;;;;4992440;28;20437;-70
2022/01/10 02:35:30;;;;;;;0.70;0.70;;;2.50;99.90;;;;;;4992394;28;20466;-70
2022/01/10 02:37:56;;;;;;;0.60;0.50;;;2.50;99.90;;;;;;4992592;28;20517;-70
2022/01/10 02:40:25;;;;;;;0.60;0.50;;;2.40;99.90;;;;;;4991956;28;20507;-70
2022/01/10 02:42:51;;;;;;;0.60;0.50;;;2.30;99.90;;;;;;4992434;28;20420;-70
2022/01/10 02:45:18;;;;;;;0.60;0.50;;;2.20;99.90;;;;;;4992235;28;20452;-70
2022/01/10 02:47:43;;;;;;;1.67;1.17;;;2.20;99.90;;;;;;4992269;28;20439;-70
2022/01/10 02:50:10;;;;;;;0.90;0.90;;;2.10;99.90;;;;;;4992133;28;20428;-70
2022/01/10 02:52:36;;;;;;;0.60;0.50;;;1.90;99.90;;;;;;4992259;28;20177;-70
2022/01/10 02:55:02;;;;;;;0.60;0.50;;;2.00;99.90;;;;;;4992209;28;20538;-70
2022/01/10 02:57:29;;;;;;;0.70;0.70;;;1.90;99.90;;;;;;4992012;28;20482;-70
2022/01/10 02:59:55;;;;;;;0.60;0.50;;;1.90;99.90;;;;;;4986532;28;20913;-70
2022/01/10 03:02:25;;;;;;;0.60;0.53;;;1.80;99.90;;;;;;4975155;28;20932;-70
2022/01/10 03:04:51;;;;;;;0.60;0.50;;;1.70;99.90;;;;;;4994076;28;20514;-70
2022/01/10 03:07:17;;;;;;;0.60;0.50;;;1.60;99.90;;;;;;4998132;28;20525;-70
2022/01/10 03:09:43;;;;;;;0.70;0.67;;;1.60;99.90;;;;;;4997685;28;20181;-68
2022/01/10 03:12:09;;;;;;;0.60;0.50;;;1.60;99.90;;;;;;4997916;28;20427;-68
2022/01/10 03:14:38;;;;;;;0.60;0.60;;;1.60;99.90;;;;;;4997211;28;20462;-68
2022/01/10 03:17:03;;;;;;;0.60;0.50;;;1.60;99.90;;;;;;4995845;28;20797;-68
2022/01/10 03:19:29;;;;;;;0.60;0.60;;;1.70;99.90;;;;;;4993242;28;20493;-68
2022/01/10 03:21:54;;;;;;;1.23;1.13;;;1.70;99.90;;;;;;4995284;28;20272;-68
2022/01/10 03:24:20;;;;;;;0.60;0.50;;;1.60;99.90;;;;;;4995937;28;20185;-69
2022/01/10 03:26:46;;;;;;;0.60;0.50;;;1.60;99.90;;;;;;4994651;28;20208;-68
2022/01/10 03:29:11;;;;;;;0.60;0.60;;;1.50;99.90;;;;;;4995577;28;20181;-69
2022/01/10 03:31:37;;;;;;;0.90;0.80;;;1.60;99.90;;;;;;4995592;28;20230;-69
2022/01/10 03:34:05;;;;;;;0.80;0.80;;;1.40;99.90;;;;;;4995553;28;20200;-69
2022/01/10 03:36:31;;;;;;;0.60;0.60;;;1.50;99.90;;;;;;4995587;28;20593;-69
2022/01/10 03:38:56;;;;;;;0.60;0.50;;;1.40;99.90;;;;;;4995420;28;20441;-69
2022/01/10 03:41:22;;;;;;;0.60;0.60;;;1.40;99.90;;;;;;4995486;28;20223;-68
2022/01/10 03:43:47;;;;;;;0.60;0.60;;;1.40;99.90;;;;;;4995450;28;20238;-69
2022/01/10 03:46:13;;;;;;;0.60;0.60;;;1.40;99.90;;;;;;4995879;28;20666;-69
2022/01/10 03:48:39;;;;;;;1.27;1.17;;;1.30;99.90;;;;;;4996813;28;20303;-68
2022/01/10 03:51:04;;;;;;;0.60;0.50;;;1.20;99.90;;;;;;4979129;28;20212;-69
2022/01/10 03:53:30;;;;;;;0.70;0.63;;;1.10;99.90;;;;;;4996784;28;20183;-68
2022/01/10 03:55:55;;;;;;;0.60;0.50;;;1.10;99.90;;;;;;4996745;28;20677;-68
2022/01/10 03:58:21;;;;;;;0.60;0.50;;;1.20;99.90;;;;;;4996002;28;20213;-69
2022/01/10 04:00:46;;;;;;;0.60;0.57;;;1.20;99.90;;;;;;4995162;28;20180;-69
2022/01/10 04:03:12;;;;;;;0.60;0.50;;;1.20;99.90;;;;;;4986604;28;20178;-69
2022/01/10 04:05:38;;;;;;;0.60;0.60;;;1.10;99.90;;;;;;4993478;28;20208;-68
2022/01/10 04:08:04;;;;;;;1.10;0.87;;;1.10;99.90;;;;;;4995154;28;20213;-69
2022/01/10 04:10:30;;;;;;;0.60;0.57;;;1.10;99.90;;;;;;4994712;28;20655;-69
2022/01/10 04:12:55;;;;;;;1.00;0.80;;;1.20;99.90;;;;;;4995723;28;20510;-69
2022/01/10 04:15:21;;;;;;;1.43;1.33;;;1.20;99.90;;;;;;4996081;28;20868;-69
2022/01/10 04:17:52;;;;;;;0.60;0.50;;;1.20;99.90;;;;;;4996501;28;20179;-69
2022/01/10 04:20:18;;;;;;;0.60;0.60;;;1.20;99.90;;;;;;4993201;28;20181;-69
2022/01/10 04:22:44;;;;;;;0.60;0.50;;;1.20;99.90;;;;;;4989579;28;20594;-69
2022/01/10 04:25:10;;;;;;;0.60;0.50;;;1.30;99.90;;;;;;4996547;28;20448;-69
2022/01/10 04:27:35;;;;;;;0.60;0.57;;;1.30;99.90;;;;;;4995792;28;20259;-69
2022/01/10 04:30:01;;;;;;;0.60;0.53;;;1.20;99.90;;;;;;4995910;28;20529;-69
2022/01/10 04:32:30;;;;;;;0.60;0.50;;;1.30;99.90;;;;;;4995940;28;20187;-69
2022/01/10 04:34:55;;;;;;;0.60;0.50;;;1.30;99.90;;;;;;4996521;28;20652;-70
2022/01/10 04:37:21;;;;;;;0.60;0.60;;;1.50;99.90;;;;;;4994215;28;20460;-70
2022/01/10 04:39:47;;;;;;;0.60;0.50;;;1.50;99.90;;;;;;4995438;28;20212;-70
2022/01/10 04:42:12;;;;;;;0.60;0.50;;;1.50;99.90;;;;;;4996385;28;20193;-70
2022/01/10 04:44:38;;;;;;;0.60;0.60;;;1.60;99.90;;;;;;4996118;28;20201;-70
2022/01/10 04:47:04;;;;;;;0.60;0.50;;;1.60;99.90;;;;;;4996120;28;20284;-70
2022/01/10 04:49:37;;;;;;;0.60;0.60;;;1.70;99.90;;;;;;4977709;28;20184;-69
2022/01/10 04:52:03;;;;;;;0.60;0.50;;;1.60;99.90;;;;;;4993248;28;20183;-70
2022/01/10 04:54:29;;;;;;;0.60;0.50;;;1.80;99.90;;;;;;4991110;28;20463;-70
2022/01/10 04:56:54;;;;;;;3.90;1.03;;;1.80;99.90;;;;;;4994181;28;20189;-70
2022/01/10 04:59:20;;;;;;;0.60;0.50;;;1.80;99.90;;;;;;4992124;28;20181;-69
2022/01/10 05:01:45;;;;;;;0.60;0.50;;;1.90;99.90;;;;;;4992942;28;20176;-69
2022/01/10 05:04:11;;;;;;;1.00;0.83;;;1.80;99.90;;;;;;4993556;28;20531;-69
2022/01/10 05:06:37;;;;;;;3.23;3.03;;;1.80;99.90;;;;;;4992965;28;20231;-68
2022/01/10 05:09:03;;;;;;;0.60;0.50;;;1.90;99.90;;;;;;4992029;28;20253;-69
2022/01/10 05:11:28;;;;;;;0.60;0.50;;;1.90;99.90;;;;;;4992714;28;20191;-68
2022/01/10 05:13:54;;;;;;;0.60;0.50;;;2.10;99.90;;;;;;4988868;28;20472;-68
2022/01/10 05:16:19;;;;;;;0.60;0.50;;;2.20;99.90;;;;;;4989647;28;20205;-69
2022/01/10 05:18:45;;;;;;;0.60;0.50;;;2.30;99.90;;;;;;4990952;28;20173;-69
2022/01/10 05:21:12;;;;;;;0.60;0.60;;;2.20;99.90;;;;;;4993243;28;20180;-70
2022/01/10 05:23:38;;;;;;;0.60;0.50;;;2.20;99.90;;;;;;4993217;28;20203;-70
2022/01/10 05:26:03;;;;;;;1.00;1.00;;;2.20;99.90;;;;;;4992663;28;20538;-70
2022/01/10 05:28:29;;;;;;;0.60;0.50;;;2.30;99.90;;;;;;4992086;28;20558;-70
2022/01/10 05:30:55;;;;;;;0.60;0.50;;;2.30;99.90;;;;;;4993139;28;20259;-70
2022/01/10 05:33:21;;;;;;;1.00;1.00;;;2.40;99.90;;;;;;4991218;28;20195;-70
2022/01/10 05:35:46;;;;;;;1.77;1.13;;;2.50;99.90;;;;;;4993285;28;20444;-69
2022/01/10 05:38:13;;;;;;;0.60;0.50;;;2.50;99.90;;;;;;4991961;28;20237;-70
2022/01/10 05:40:40;;;;;;;0.60;0.50;;;2.60;99.90;;;;;;4990954;28;20191;-70
2022/01/10 05:43:05;;;;;;;1.53;1.43;;;2.60;99.90;;;;;;4991387;28;20976;-70
2022/01/10 05:45:31;;;;;;;0.77;0.77;;;2.70;99.90;;;;;;4975402;28;20456;-70
2022/01/10 05:47:59;;;;;;;0.70;0.70;;;2.60;99.90;;;;;;4992727;28;20714;-70
2022/01/10 05:50:34;;;;;;;0.60;0.50;;;2.60;99.90;;;;;;4988166;28;20266;-69
2022/01/10 05:52:59;;;;;;;0.70;0.70;;;2.50;99.90;;;;;;4992729;28;20430;-67
2022/01/10 05:55:25;;;;;;;0.60;0.50;;;2.60;99.90;;;;;;4991828;28;20460;-68
2022/01/10 05:57:51;;;;;;;0.60;0.60;;;2.50;99.90;;;;;;4991202;28;20235;-69
2022/01/10 06:00:17;;;;;;;0.60;0.50;;;2.60;99.90;;;;;;4991561;28;20436;-69
2022/01/10 06:02:42;;;;;;;0.60;0.50;;;2.60;99.90;;;;;;4991605;28;20255;-70
2022/01/10 06:05:09;;;;;;;0.63;0.60;;;2.60;99.90;;;;;;4992385;28;20604;-69
2022/01/10 06:07:36;;;;;;;0.93;0.93;;;2.60;99.90;;;;;;4992699;28;20245;-70
2022/01/10 06:10:04;;;;;;;1.07;0.93;;;2.70;99.90;;;;;;4990771;28;20440;-70
2022/01/10 06:12:30;;;;;;;0.60;0.50;;;2.80;99.90;;;;;;4974350;28;20446;-70
2022/01/10 06:14:55;;;;;;;0.70;0.70;;;2.70;99.90;;;;;;4992121;28;20464;-69
2022/01/10 06:17:21;;;;;;;0.73;0.73;;;2.80;99.90;;;;;;4992480;28;20175;-70
2022/01/10 06:19:46;;;;;;;3.03;1.00;;;2.70;99.90;;;;;;4990467;28;20283;-70
2022/01/10 06:22:12;;;;;;;0.60;0.60;;;2.70;99.90;;;;;;4974343;28;20774;-70
2022/01/10 06:24:38;;;;;;;0.60;0.50;;;2.70;99.90;;;;;;4992764;28;20638;-70
2022/01/10 06:27:04;;;;;;;0.60;0.60;;;2.70;99.90;;;;;;4992741;28;20197;-71
2022/01/10 06:29:29;;;;;;;0.60;0.60;;;2.70;99.90;;;;;;4974739;28;20937;-71
2022/01/10 06:31:55;;;;;;;0.60;0.50;;;2.70;99.90;;;;;;4992606;28;20540;-71
2022/01/10 06:34:20;;;;;;;0.60;0.60;;;2.60;99.90;;;;;;4992592;28;20196;-70
2022/01/10 06:36:46;;;;;;;1.47;1.40;;;2.60;99.90;;;;;;4992058;28;20279;-70
2022/01/10 06:39:12;;;;;;;0.60;0.53;;;2.60;99.90;;;;;;4991402;28;20537;-70
2022/01/10 06:41:38;;;;;;;0.70;0.70;;;2.60;99.90;;;;;;4992432;28;20660;-70
2022/01/10 06:44:03;;;;;;;1.13;1.03;;;2.70;99.90;;;;;;4992537;28;20428;-70
2022/01/10 06:46:29;;;;;;;0.90;0.73;;;2.70;99.90;;;;;;4992349;28;20883;-70
2022/01/10 06:48:54;;;;;;;1.10;1.10;;;2.70;99.90;;;;;;4991735;28;20207;-70
2022/01/10 06:51:20;;;;;;;0.60;0.50;;;2.60;99.90;;;;;;4992407;28;20180;-70
2022/01/10 06:53:46;;;;;;;4.73;1.03;;;2.60;99.90;;;;;;4992485;28;20200;-69
2022/01/10 06:56:11;;;;;;;0.80;0.73;;;2.50;99.90;;;;;;4974892;28;20292;-70
2022/01/10 06:58:37;;;;;;;0.60;0.50;;;2.60;99.90;;;;;;4991777;28;20264;-68
2022/01/10 07:01:03;;;;;;;0.60;0.50;;;2.50;99.90;;;;;;4992183;28;20176;-69
2022/01/10 07:03:28;;;;;;;0.60;0.60;;;2.30;99.90;;;;;;4992242;28;20643;-69
2022/01/10 07:05:54;;;;;;;0.60;0.60;;;2.20;99.90;;;;;;4992081;28;20952;-69
2022/01/10 07:08:20;;;;;;;0.60;0.50;;;2.20;99.90;;;;;;4992313;28;20180;-68
2022/01/10 07:10:45;;;;;;;0.60;0.50;;;2.20;99.90;;;;;;4991804;28;20168;-68
2022/01/10 07:13:11;;;;;;;0.60;0.50;;;2.20;99.90;;;;;;4992032;28;20485;-69
2022/01/10 07:15:36;;;;;;;1.20;0.93;;;2.10;99.90;;;;;;4991494;28;20242;-69
2022/01/10 07:18:02;;;;;;;0.60;0.50;;;2.10;99.90;;;;;;4992127;28;20661;-69
2022/01/10 07:20:28;;;;;;;0.60;0.50;;;2.00;99.90;;;;;;4991819;28;20281;-69
2022/01/10 07:22:53;;;;;;;0.60;0.50;;;2.10;99.90;;;;;;4992205;28;20173;-69
2022/01/10 07:25:19;;;;;;;0.60;0.50;;;2.10;99.90;;;;;;4992018;28;20566;-69
2022/01/10 07:27:44;;;;;;;0.60;0.53;;;2.20;99.90;;;;;;4992021;28;20176;-70
2022/01/10 07:30:10;;;;;;;0.60;0.50;;;2.10;99.90;;;;;;4991769;28;20189;-70
2022/01/10 07:32:36;;;;;;;1.17;1.07;;;2.10;99.90;;;;;;4992120;28;20288;-69
2022/01/10 07:35:02;;;;;;;0.60;0.53;;;2.10;99.90;;;;;;4991783;28;20467;-69
2022/01/10 07:37:27;;;;;;;1.13;1.13;;;2.00;99.90;;;;;;4991796;28;20236;-69
2022/01/10 07:39:53;;;;;;;0.80;0.80;;;1.90;99.90;;;;;;4991581;28;20428;-69
2022/01/10 07:42:19;;;;;;;0.60;0.50;;;1.90;99.90;;;;;;4992134;28;20181;-69
2022/01/10 07:44:44;;;;;;;0.60;0.50;;;1.90;99.90;;;;;;4991310;28;20220;-69
2022/01/10 07:47:10;;;;;;;0.60;0.50;;;1.80;99.90;;;;;;5002675;28;20251;-69
2022/01/10 07:49:35;;;;;;;0.60;0.57;;;1.70;99.90;;;;;;4991636;28;20177;-69
2022/01/10 07:52:02;;;;;;;2.00;1.90;;;1.70;99.90;;;;;;4995411;28;20192;-69
2022/01/10 07:54:28;;;;;;;0.60;0.50;;;1.70;99.90;;;;;;4995123;28;20227;-69
2022/01/10 07:56:54;;;;;;;0.60;0.50;;;1.50;99.90;;;;;;4995412;28;20440;-69
2022/01/10 07:59:21;;;;;;;0.70;0.70;;;1.40;99.90;;;;;;4994929;28;20260;-69
2022/01/10 08:01:47;;;;;;;0.60;0.60;;;1.40;99.90;;;;;;4994965;28;20455;-69
2022/01/10 08:04:13;;;;;;;0.87;0.87;;;1.40;99.90;;;;;;4994922;28;20951;-69
2022/01/10 08:06:39;;;;;;;0.60;0.50;;;1.50;99.90;;;;;;4995088;28;20444;-70
2022/01/10 08:09:06;;;;;;;0.60;0.50;;;1.50;99.90;;;;;;4995091;28;20431;-69
2022/01/10 08:11:32;;;;;;;0.70;0.70;;;1.60;99.90;;;;;;4995083;28;20855;-70
2022/01/10 08:13:57;;;;;;;0.60;0.60;;;1.60;99.90;;;;;;4994963;28;20463;-69
2022/01/10 08:16:23;;;;;;;1.07;0.97;;;1.60;99.90;;;;;;4994999;28;20440;-69
2022/01/10 08:18:48;;;;;;;6.40;2.40;;;1.70;99.90;;;;;;4994242;28;20636;-70
2022/01/10 08:21:14;;;;;;;1.73;0.90;;;1.90;99.90;;;;;;4994342;28;20512;-70
2022/01/10 08:23:40;;;;;;;0.60;0.50;;;2.00;99.90;;;;;;4994987;28;20177;-70
2022/01/10 08:26:08;;;;;;;0.73;0.73;;;2.40;99.90;;;;;;4994909;28;20555;-70
2022/01/10 08:28:37;;;;;;;0.70;0.67;;;2.90;99.90;;;;;;4994994;28;20246;-69
2022/01/10 08:31:03;;;;;;;0.60;0.57;;;3.60;99.90;;;;;;4994581;28;20431;-70
2022/01/10 08:33:29;;;;;;;0.77;0.77;;;4.00;99.90;;;;;;4994266;28;20550;-70
2022/01/10 08:35:54;;;;;;;0.63;0.57;;;4.80;99.90;;;;;;4994636;28;20443;-69
2022/01/10 08:38:20;;;;;;;0.87;0.87;;;5.40;99.90;;;;;;4994435;28;20180;-70
2022/01/10 08:40:46;;;;;;;0.70;0.70;;;6.10;99.90;;;;;;4976682;28;20173;-69
2022/01/10 08:43:12;;;;;;;1.40;1.13;;;6.90;99.90;;;;;;4994651;28;20177;-69
2022/01/10 08:45:40;;;;;;;0.90;0.90;;;7.50;99.90;;;;;;4994276;28;20204;-70
2022/01/10 08:48:07;;;;;;;0.70;0.60;;;7.80;99.90;;;;;;4993653;28;20714;-70
2022/01/10 08:50:34;;;;;;;0.97;0.87;;;8.10;99.90;;;;;;4993881;28;20792;-70
2022/01/10 08:53:04;;;;;;;1.40;1.30;;;8.40;99.90;;;;;;4994099;28;20932;-68
2022/01/10 08:55:30;;;;;;;5.33;1.23;;;8.80;99.90;;;;;;4993970;28;21017;-68
2022/01/10 08:57:56;;;;;;;0.80;0.80;;;9.00;99.90;;;;;;4994346;28;20424;-68
2022/01/10 09:00:22;;;;;;;3.90;3.53;;;9.40;99.90;;;;;;4994060;28;20462;-69
2022/01/10 09:02:47;;;;;;;2.63;0.90;;;9.70;99.90;;;;;;4992620;28;20428;-68
2022/01/10 09:05:13;;;;;;;1.40;1.30;;;10.00;99.90;;;;;;4994036;28;20559;-68
2022/01/10 09:07:39;;;;;;;1.10;1.00;;;10.40;99.90;;;;;;4993024;28;20184;-69
2022/01/10 09:10:06;;;;;;;2.83;1.53;;;10.70;99.90;;;;;;4993829;28;20223;-68
2022/01/10 09:12:31;;;;;;;1.63;1.10;;;10.70;99.90;;;;;;4991843;28;20845;-69
2022/01/10 09:14:57;;;;;;;1.80;0.77;;;10.80;99.90;;;;;;4993281;28;20486;-68
2022/01/10 09:17:23;;;;;;;1.07;0.97;;;11.10;99.90;;;;;;4993505;28;20647;-69
2022/01/10 09:19:48;;;;;;;1.00;0.90;;;11.00;99.90;;;;;;4992839;28;20212;-68
2022/01/10 09:22:14;;;;;;;1.20;0.80;;;11.40;99.90;;;;;;4990797;28;20534;-69
2022/01/10 09:24:40;;;;;;;2.50;1.57;;;11.70;99.90;;;;;;4996088;28;20262;-69
2022/01/10 09:27:06;;;;;;;3.33;1.27;;;10.90;99.90;;;;;;4993345;28;20646;-69
2022/01/10 09:29:31;;;;;;;1.13;0.93;;;10.90;99.90;;;;;;4993025;28;20486;-68
2022/01/10 09:31:57;;;;;;;1.00;1.00;;;11.30;99.90;;;;;;4993169;28;20288;-68
2022/01/10 09:34:23;;;;;;;1.77;1.67;;;11.00;99.90;;;;;;4993191;28;20204;-69
2022/01/10 09:36:48;;;;;;;1.43;1.03;;;11.50;99.90;;;;;;4993229;28;20200;-69
2022/01/10 09:39:14;;;;;;;4.63;2.50;;;11.90;99.90;;;;;;4992996;28;20200;-69
2022/01/10 09:41:40;;;;;;;1.73;1.63;;;12.20;99.90;;;;;;4993058;28;20280;-68
2022/01/10 09:44:06;;;;;;;2.43;1.63;;;11.70;99.90;;;;;;4992859;28;20431;-68
2022/01/10 09:46:33;;;;;;;6.70;2.00;;;11.80;99.90;;;;;;4992370;28;20460;-69
2022/01/10 09:49:00;;;;;;;0.80;0.80;;;12.80;99.90;;;;;;4992727;28;20946;-69
2022/01/10 09:51:27;;;;;;;4.30;2.07;;;13.50;99.90;;;;;;4992872;28;20518;-68
2022/01/10 09:53:55;;;;;;;1.97;1.70;;;13.70;99.90;;;;;;4992871;28;20988;-68
2022/01/10 09:56:21;;;;;;;0.87;0.80;;;13.20;99.90;;;;;;4992695;28;20439;-68
2022/01/10 09:58:47;;;;;;;1.47;1.37;;;13.40;99.90;;;;;;4992571;28;20937;-68
2022/01/10 10:01:18;;;;;;;4.00;1.43;;;13.70;99.90;;;;;;4975273;28;20420;-68
2022/01/10 10:03:48;;;;;;;2.10;2.00;;;13.60;98.50;;;;;;4992476;28;20597;-69
2022/01/10 10:06:16;;;;;;;2.33;1.33;;;13.70;99.30;;;;;;4992787;28;20937;-68
2022/01/10 10:08:42;;;;;;;1.20;1.10;;;13.90;99.20;;;;;;4992625;28;20477;-68
2022/01/10 10:11:08;;;;;;;1.30;1.20;;;13.30;98.30;;;;;;4992260;28;20432;-68
2022/01/10 10:13:53;;;;;;;2.07;1.50;;;13.80;99.80;;;;;;4991675;28;20809;-68
2022/01/10 10:16:20;;;;;;;1.20;1.07;;;14.10;99.70;;;;;;4990135;28;20479;-68
2022/01/10 10:18:47;;;;;;;2.47;1.23;;;14.20;99.30;;;;;;4992640;28;20420;-69
2022/01/10 10:21:17;;;;;;;1.53;1.00;;;14.00;97.60;;;;;;4992276;28;20428;-72
2022/01/10 10:23:46;;;;;;;2.47;2.27;;;14.10;97.70;;;;;;4992060;28;20424;-68
2022/01/10 10:26:17;;;;;;;3.43;1.70;;;15.00;97.30;;;;;;4992338;28;20447;-69
2022/01/10 10:28:45;;;;;;;6.63;1.33;;;16.10;93.40;;;;;;4992214;28;20417;-69
2022/01/10 10:31:12;;;;;;;5.73;1.57;;;15.70;90.60;;;;;;4991861;28;20428;-68
2022/01/10 10:33:47;;;;;;;2.10;1.23;;;16.40;89.30;;;;;;4992252;28;20472;-68
2022/01/10 10:36:13;;;;;;;1.30;1.20;;;17.10;90.40;;;;;;4992288;28;20443;-69
2022/01/10 10:38:38;;;;;;;7.03;1.37;;;17.60;86.50;;;;;;4991706;28;20523;-69
2022/01/10 10:41:05;;;;;;;4.50;1.73;;;18.40;78.40;;;;;;4991945;28;20176;-69
2022/01/10 10:43:36;;;;;;;1.73;1.10;;;18.20;74.80;;;;;;4992213;28;20165;-69
2022/01/10 10:46:04;;;;;;;2.43;2.13;;;18.60;76.50;;;;;;4991891;28;20872;-69
2022/01/10 10:48:33;;;;;;;1.20;1.10;;;18.90;74.50;;;;;;4992017;28;20456;-69
2022/01/10 10:50:59;;;;;;;2.47;2.27;;;19.00;70.90;;;;;;4991786;28;20475;-69
2022/01/10 10:53:29;;;;;;;1.57;1.47;;;19.50;68.30;;;;;;4991221;28;20431;-69
2022/01/10 10:55:58;;;;;;;1.90;1.80;;;19.50;67.50;;;;;;4987951;28;20555;-69
2022/01/10 10:58:25;;;;;;;1.30;1.13;;;19.30;69.00;;;;;;4991753;28;20439;-69
2022/01/10 11:00:51;;;;;;;1.37;1.27;;;19.80;70.70;;;;;;4991259;28;20420;-69
2022/01/10 11:03:18;;;;;;;1.53;1.43;;;19.20;65.30;;;;;;4991995;28;20918;-69
2022/01/10 11:05:45;;;;;;;2.10;1.67;;;18.50;67.60;;;;;;4991900;28;20204;-69
2022/01/10 11:08:11;;;;;;;1.33;1.23;;;19.00;68.40;;;;;;4991894;28;20431;-69
2022/01/10 11:10:41;;;;;;;2.83;1.30;;;19.60;67.60;;;;;;4974152;28;20439;-69
2022/01/10 11:13:07;;;;;;;1.07;1.00;;;19.20;64.90;;;;;;4991967;28;20863;-69
2022/01/10 11:15:38;;;;;;;2.13;1.93;;;19.90;65.50;;;;;;4991183;28;20518;-70
2022/01/10 11:18:06;;;;;;;10.30;1.93;;;19.80;64.10;;;;;;4992017;28;20412;-69
2022/01/10 11:20:46;;;;;;;2.10;1.80;;;20.50;66.20;;;;;;4991566;28;20424;-69
2022/01/10 11:23:12;;;;;;;1.87;1.67;;;20.30;63.50;;;;;;4991883;28;20428;-69
2022/01/10 11:25:40;;;;;;;1.17;1.07;;;19.60;61.80;;;;;;4992981;28;20475;-69
2022/01/10 11:28:17;;;;;;;2.03;1.83;;;20.40;63.80;;;;;;4995354;28;20181;-69
2022/01/10 11:30:45;;;;;;;1.47;1.37;;;19.00;61.90;;;;;;4995422;28;20443;-69
2022/01/10 11:33:17;;;;;;;1.43;1.33;;;18.50;62.10;;;;;;4978085;28;20459;-69
2022/01/10 11:35:57;;;;;;;1.80;1.70;;;17.70;63.60;;;;;;4995054;28;20478;-69
2022/01/10 11:38:25;;;;;;;1.73;1.63;;;19.20;67.30;;;;;;4995962;28;20423;-69
2022/01/10 11:40:58;;;;;;;1.97;1.80;;;18.80;64.20;;;;;;4995429;28;21163;-68
2022/01/10 11:43:34;;;;;;;2.50;2.30;;;19.00;64.00;;;;;;4995072;28;20431;-69
2022/01/10 11:46:26;;;;;;;6.57;2.60;;;19.10;64.30;;;;;;4992101;28;20952;-70
2022/01/10 11:49:00;;;;;;;1.57;1.47;;;18.70;63.50;;;;;;4987854;28;20770;-69
2022/01/10 11:51:34;;;;;;;5.10;1.80;;;19.00;65.70;;;;;;4993033;28;20480;-68
2022/01/10 11:54:18;;;;;;;2.37;1.57;;;19.20;62.10;;;;;;4995135;28;21002;-69
2022/01/10 11:56:49;;;;;;;1.43;1.33;;;19.00;63.40;;;;;;4993481;28;20818;-69
2022/01/10 11:59:33;;;;;;;2.23;2.07;;;19.00;63.70;;;;;;4994261;28;20849;-68
2022/01/10 12:02:19;;;;;;;3.47;2.03;;;18.70;63.40;;;;;;4991754;28;20428;-69
2022/01/10 12:04:46;;;;;;;11.33;3.13;;;19.40;64.50;;;;;;4994353;28;20424;-70
2022/01/10 12:07:15;;;;;;;3.90;1.27;;;19.70;62.30;;;;;;4994488;28;20783;-70
2022/01/10 12:09:41;;;;;;;1.27;1.17;;;20.30;62.80;;;;;;4994706;28;20988;-69
2022/01/10 12:12:09;;;;;;;1.87;1.77;;;19.40;58.80;;;;;;4994617;28;20423;-69
2022/01/10 12:14:34;;;;;;;2.20;2.00;;;19.70;59.90;;;;;;4994558;28;20459;-70
2022/01/10 12:17:00;;;;;;;1.47;1.10;;;19.60;60.10;;;;;;4994310;28;20440;-69
2022/01/10 12:19:26;;;;;;;2.33;2.13;;;19.80;60.10;;;;;;4993772;28;20671;-69
2022/01/10 12:21:53;;;;;;;1.90;1.40;;;19.70;61.40;;;;;;4994870;28;20173;-69
2022/01/10 12:24:19;;;;;;;1.47;1.37;;;19.40;59.40;;;;;;4993160;28;20417;-70
2022/01/10 12:26:46;;;;;;;3.63;2.27;;;19.60;60.30;;;;;;4995144;28;20450;-69
2022/01/10 12:29:13;;;;;;;3.47;3.10;;;19.10;58.50;;;;;;4976395;28;20427;-69
2022/01/10 12:31:41;;;;;;;2.23;2.03;;;19.50;60.80;;;;;;4993797;28;20417;-69
2022/01/10 12:34:09;;;;;;;9.03;2.40;;;18.90;60.00;;;;;;4994194;28;20467;-69
2022/01/10 12:36:37;;;;;;;3.83;1.20;;;18.80;60.30;;;;;;4993921;28;20440;-70
2022/01/10 12:39:11;;;;;;;4.63;1.60;;;18.20;61.30;;;;;;4994117;28;20559;-69
2022/01/10 12:41:37;;;;;;;4.50;3.00;;;17.60;60.50;;;;;;4982733;28;20485;-69
2022/01/10 12:44:03;;;;;;;2.23;2.10;;;18.80;64.20;;;;;;4988079;28;20424;-69
2022/01/10 12:46:32;;;;;;;0.93;0.90;;;18.20;61.60;;;;;;4993540;28;21072;-69
2022/01/10 12:49:05;;;;;;;2.73;1.30;;;18.90;61.90;;;;;;4994676;28;20820;-69
2022/01/10 12:51:36;;;;;;;1.80;1.27;;;19.30;61.50;;;;;;4994106;28;20432;-69
2022/01/10 12:54:04;;;;;;;1.77;1.10;;;18.40;61.60;;;;;;4994049;28;20590;-69
2022/01/10 12:56:31;;;;;;;1.30;1.20;;;18.00;62.50;;;;;;4993305;28;20440;-69
2022/01/10 12:58:57;;;;;;;2.80;2.07;;;18.50;62.60;;;;;;4994241;28;20764;-70
2022/01/10 13:01:23;;;;;;;5.77;2.67;;;18.00;61.90;;;;;;4994029;28;20495;-69
2022/01/10 13:03:53;;;;;;;2.97;2.77;;;18.90;63.30;;;;;;4991438;28;20181;-70